createdAt,value
2019-03-01T00:01:47.415Z,9.58
2019-03-01T00:07:40.437Z,9.51
2019-03-01T00:13:15.851Z,9.17
2019-03-01T00:19:02.702Z,9.44
2019-03-01T00:24:43.343Z,8.81
2019-03-01T00:30:36.984Z,8.93
2019-03-01T00:36:08.580Z,9.09
2019-03-01T00:41:34.112Z,8.84
2019-03-01T00:46:57.674Z,8.67
2019-03-01T00:52:03.203Z,8.65
2019-03-01T00:57:18.347Z,8.06
2019-03-01T01:02:24.226Z,8.45
2019-03-01T01:07:29.826Z,8.64
2019-03-01T01:12:35.273Z,8.59
2019-03-01T01:17:41.124Z,8.26
2019-03-01T01:22:47.172Z,8.76
2019-03-01T01:27:54.680Z,8.53
2019-03-01T01:33:00.283Z,8.65
2019-03-01T01:38:09.498Z,8.89
2019-03-01T01:43:14.962Z,9.10
2019-03-01T01:48:20.455Z,8.76
2019-03-01T01:53:25.979Z,8.83
2019-03-01T01:58:31.437Z,8.75
2019-03-01T02:03:37.264Z,8.49
2019-03-01T02:08:42.899Z,8.82
2019-03-01T02:13:48.505Z,9.02
2019-03-01T02:18:57.778Z,8.96
2019-03-01T02:24:01.380Z,9.06
2019-03-01T02:29:06.874Z,9.17
2019-03-01T02:34:12.451Z,9.00
2019-03-01T02:39:18.181Z,9.09
2019-03-01T02:44:25.585Z,8.96
2019-03-01T02:49:31.175Z,9.12
2019-03-01T02:54:36.606Z,8.90
2019-03-01T02:59:42.189Z,8.87
2019-03-01T03:05:07.757Z,9.10
2019-03-01T03:10:17.066Z,9.03
2019-03-01T03:15:30.452Z,8.94
2019-03-01T03:20:36.104Z,8.86
2019-03-01T03:25:41.769Z,8.86
2019-03-01T03:30:47.616Z,8.80
2019-03-01T03:35:53.198Z,8.75
2019-03-01T03:41:01.890Z,8.71
2019-03-01T03:46:07.552Z,8.59
2019-03-01T03:51:13.385Z,8.74
2019-03-01T03:56:20.800Z,8.59
2019-03-01T04:01:27.942Z,8.51
2019-03-01T04:06:33.635Z,8.73
2019-03-01T04:11:39.667Z,8.90
2019-03-01T04:16:45.448Z,8.84
2019-03-01T04:21:52.093Z,8.83
2019-03-01T04:26:57.846Z,8.99
2019-03-01T04:32:03.918Z,9.06
2019-03-01T04:37:09.409Z,8.77
2019-03-01T04:42:14.927Z,9.00
2019-03-01T04:47:20.522Z,9.00
2019-03-01T04:52:37.641Z,8.98
2019-03-01T04:57:43.561Z,9.07
2019-03-01T05:02:49.923Z,8.94
2019-03-01T05:07:57.609Z,9.10
2019-03-01T05:13:05.355Z,9.05
2019-03-01T05:18:10.893Z,9.18
2019-03-01T05:23:16.435Z,8.97
2019-03-01T05:28:22.412Z,9.13
2019-03-01T05:33:28.725Z,9.04
2019-03-01T05:38:34.248Z,9.09
2019-03-01T05:43:39.777Z,9.00
2019-03-01T05:48:45.285Z,8.70
2019-03-01T05:53:53.766Z,8.87
2019-03-01T05:59:14.478Z,8.79
2019-03-01T06:04:44.914Z,8.78
2019-03-01T06:10:40.397Z,8.83
2019-03-01T06:16:07.070Z,8.90
2019-03-01T06:21:36.516Z,8.83
2019-03-01T06:27:00.545Z,8.69
2019-03-01T06:32:58.188Z,8.71
2019-03-01T06:39:11.560Z,8.60
2019-03-01T06:44:49.275Z,8.76
2019-03-01T06:50:06.641Z,8.79
2019-03-01T06:55:30.293Z,9.13
2019-03-01T07:00:47.291Z,9.08
2019-03-01T07:05:48.189Z,9.00
2019-03-01T07:10:53.679Z,8.97
2019-03-01T07:15:59.207Z,9.11
2019-03-01T07:21:07.062Z,9.15
2019-03-01T07:26:14.751Z,9.21
2019-03-01T07:31:20.406Z,9.06
2019-03-01T07:36:25.956Z,9.00
2019-03-01T07:41:31.435Z,9.12
2019-03-01T07:46:37.017Z,9.25
2019-03-01T07:51:43.208Z,9.16
2019-03-01T07:56:48.695Z,9.27
2019-03-01T08:01:55.932Z,9.20
2019-03-01T08:07:01.500Z,9.14
2019-03-01T08:12:08.158Z,9.12
2019-03-01T08:17:13.824Z,9.04
2019-03-01T08:22:20.790Z,9.39
2019-03-01T08:27:28.231Z,9.27
2019-03-01T08:32:33.759Z,9.49
2019-03-01T08:37:39.372Z,9.45
2019-03-01T08:42:45.671Z,9.81
2019-03-01T08:47:55.526Z,10.05
2019-03-01T08:52:59.544Z,10.08
2019-03-01T08:58:09.367Z,10.17
2019-03-01T09:03:23.167Z,10.07
2019-03-01T09:08:28.915Z,10.17
2019-03-01T09:13:36.133Z,10.39
2019-03-01T09:18:41.862Z,10.36
2019-03-01T09:24:06.159Z,9.98
2019-03-01T09:29:12.986Z,10.09
2019-03-01T09:34:19.409Z,9.47
2019-03-01T09:39:24.981Z,9.62
2019-03-01T09:44:34.600Z,9.83
2019-03-01T09:49:43.926Z,9.71
2019-03-01T09:54:49.522Z,9.97
2019-03-01T10:05:34.521Z,10.00
2019-03-01T10:10:40.241Z,10.18
2019-03-01T10:15:46.127Z,10.20
2019-03-01T10:20:51.679Z,10.47
2019-03-01T10:25:57.190Z,10.46
2019-03-01T10:31:02.979Z,10.51
2019-03-01T10:36:09.973Z,10.38
2019-03-01T10:41:18.386Z,9.76
2019-03-01T10:46:24.065Z,10.05
2019-03-01T10:51:30.048Z,10.03
2019-03-01T10:56:35.713Z,9.75
2019-03-01T11:01:44.705Z,9.89
2019-03-01T11:06:50.391Z,9.93
2019-03-01T11:11:56.080Z,10.22
2019-03-01T11:17:03.777Z,10.54
2019-03-01T11:22:09.919Z,10.36
2019-03-01T11:27:15.725Z,10.31
2019-03-01T11:32:23.328Z,10.41
2019-03-01T11:37:28.893Z,10.84
2019-03-01T11:42:37.656Z,10.65
2019-03-01T11:47:50.163Z,10.91
2019-03-01T11:52:55.984Z,10.99
2019-03-01T11:58:01.640Z,10.70
2019-03-01T12:03:08.891Z,10.47
2019-03-01T12:08:14.438Z,10.26
2019-03-01T12:13:21.467Z,10.57
2019-03-01T12:18:27.229Z,11.08
2019-03-01T12:23:35.026Z,10.94
2019-03-01T12:28:40.515Z,11.40
2019-03-01T12:33:46.375Z,10.90
2019-03-01T12:38:52.004Z,11.31
2019-03-01T12:44:00.281Z,10.84
2019-03-01T12:49:07.347Z,11.28
2019-03-01T12:54:14.074Z,11.50
2019-03-01T12:59:20.068Z,11.47
2019-03-01T13:04:27.356Z,11.11
2019-03-01T13:09:32.843Z,11.33
2019-03-01T13:14:40.332Z,11.23
2019-03-01T13:19:45.748Z,11.51
2019-03-01T13:24:53.467Z,11.17
2019-03-01T13:29:59.811Z,10.73
2019-03-01T13:35:07.756Z,9.61
2019-03-01T13:40:14.502Z,8.89
2019-03-01T13:45:20.118Z,9.27
2019-03-01T13:50:26.241Z,9.16
2019-03-01T13:55:32.166Z,9.28
2019-03-01T14:00:41.148Z,9.08
2019-03-01T14:05:47.271Z,9.52
2019-03-01T14:10:54.524Z,9.68
2019-03-01T14:16:05.906Z,9.79
2019-03-01T14:21:11.958Z,9.80
2019-03-01T14:26:23.529Z,9.58
2019-03-01T14:31:32.632Z,9.44
2019-03-01T14:36:43.967Z,9.67
2019-03-01T14:41:52.735Z,9.58
2019-03-01T14:47:07.101Z,9.46
2019-03-01T14:52:15.153Z,9.61
2019-03-01T14:57:26.263Z,8.90
2019-03-01T15:03:06.010Z,8.87
2019-03-01T15:08:17.111Z,8.53
2019-03-01T15:13:31.444Z,8.42
2019-03-01T15:18:37.338Z,8.67
2019-03-01T15:23:42.969Z,8.32
2019-03-01T15:28:55.305Z,8.52
2019-03-01T15:34:01.610Z,8.65
2019-03-01T15:39:20.017Z,8.66
2019-03-01T15:44:30.229Z,8.16
2019-03-01T15:49:36.493Z,8.26
2019-03-01T15:54:51.424Z,8.45
2019-03-01T15:59:59.647Z,8.49
2019-03-01T16:05:09.925Z,8.02
2019-03-01T16:10:15.791Z,7.80
2019-03-01T16:15:26.755Z,7.65
2019-03-01T16:20:36.766Z,7.49
2019-03-01T16:25:44.399Z,7.53
2019-03-01T16:30:53.240Z,7.77
2019-03-01T16:35:58.456Z,7.42
2019-03-01T16:41:08.470Z,7.33
2019-03-01T16:46:18.091Z,7.43
2019-03-01T16:51:25.232Z,7.39
2019-03-01T16:56:38.449Z,7.12
2019-03-01T17:01:47.043Z,7.17
2019-03-01T17:06:52.781Z,7.17
2019-03-01T17:12:03.036Z,7.09
2019-03-01T17:17:09.030Z,7.19
2019-03-01T17:22:15.916Z,6.82
2019-03-01T17:27:26.950Z,6.57
2019-03-01T17:32:36.952Z,6.82
2019-03-01T17:37:42.572Z,6.58
2019-03-01T17:43:01.353Z,6.74
2019-03-01T17:48:11.980Z,6.56
2019-03-01T17:53:31.611Z,6.62
2019-03-01T17:58:39.717Z,6.15
2019-03-01T18:03:50.696Z,5.68
2019-03-01T18:08:59.395Z,5.65
2019-03-01T18:14:12.648Z,5.39
2019-03-01T18:19:26.617Z,5.39
2019-03-01T18:24:38.622Z,5.45
2019-03-01T18:29:49.980Z,5.39
2019-03-01T18:34:57.234Z,5.06
2019-03-01T18:40:09.932Z,5.07
2019-03-01T18:45:21.461Z,5.17
2019-03-01T18:50:33.354Z,5.22
2019-03-01T18:55:49.678Z,5.05
2019-03-01T19:01:00.047Z,5.43
2019-03-01T19:06:17.141Z,5.20
2019-03-01T19:11:23.434Z,4.91
2019-03-01T19:16:48.421Z,4.93
2019-03-01T19:21:58.281Z,4.93
2019-03-01T19:27:15.565Z,5.16
2019-03-01T19:32:26.590Z,5.17
2019-03-01T19:37:38.363Z,5.43
2019-03-01T19:42:54.748Z,5.77
2019-03-01T19:48:05.906Z,5.10
2019-03-01T19:53:17.297Z,5.42
2019-03-01T19:58:28.696Z,5.04
2019-03-01T20:03:48.549Z,4.76
2019-03-01T20:09:01.680Z,4.62
2019-03-01T20:14:16.864Z,4.52
2019-03-01T20:19:34.528Z,4.78
2019-03-01T20:24:48.097Z,5.26
2019-03-01T20:30:00.794Z,4.82
2019-03-01T20:35:16.007Z,4.63
2019-03-01T20:40:30.476Z,4.48
2019-03-01T20:45:45.179Z,5.07
2019-03-01T20:51:06.953Z,4.91
2019-03-01T20:56:13.845Z,4.91
2019-03-01T21:01:23.395Z,5.34
2019-03-01T21:06:43.323Z,5.39
2019-03-01T21:11:50.796Z,4.52
2019-03-01T21:17:13.050Z,4.86
2019-03-01T21:22:22.350Z,4.95
2019-03-01T21:27:38.209Z,5.22
2019-03-01T21:33:04.639Z,5.39
2019-03-01T21:38:17.047Z,5.03
2019-03-01T21:43:30.657Z,4.75
2019-03-01T21:48:48.650Z,4.50
2019-03-01T21:54:07.932Z,4.50
2019-03-01T21:59:23.906Z,4.21
2019-03-01T22:04:39.121Z,4.09
2019-03-01T22:09:46.603Z,4.09
2019-03-01T22:14:55.764Z,4.31
2019-03-01T22:20:08.879Z,4.82
2019-03-01T22:25:15.333Z,4.46
2019-03-01T22:30:43.791Z,4.09
2019-03-01T22:36:00.607Z,4.40
2019-03-01T22:41:06.234Z,4.68
2019-03-01T22:46:16.559Z,4.07
2019-03-01T22:51:26.921Z,4.55
2019-03-01T22:56:38.131Z,4.55
2019-03-01T23:01:48.908Z,4.28
2019-03-01T23:06:58.765Z,4.47
2019-03-01T23:12:10.432Z,4.09
2019-03-01T23:17:22.720Z,4.04
2019-03-01T23:22:34.078Z,4.44
2019-03-01T23:27:50.471Z,4.60
2019-03-01T23:32:58.172Z,4.12
2019-03-01T23:38:15.072Z,4.12
2019-03-01T23:43:21.448Z,4.61
2019-03-01T23:48:53.635Z,4.55
2019-03-01T23:54:01.487Z,4.55
2019-03-01T23:59:08.737Z,4.33
